createdAt,value
2018-11-21T00:00:05.770Z,23.00
2018-11-21T00:01:05.721Z,23.20
2018-11-21T00:02:05.682Z,24.30
2018-11-21T00:03:05.704Z,27.90
2018-11-21T00:04:05.625Z,24.90
2018-11-21T00:05:05.620Z,24.20
2018-11-21T00:06:05.617Z,24.30
2018-11-21T00:07:05.630Z,23.40
2018-11-21T00:08:05.540Z,23.60
2018-11-21T00:09:05.499Z,24.60
2018-11-21T00:10:05.490Z,25.80
2018-11-21T00:11:05.450Z,21.80
2018-11-21T00:12:05.432Z,24.10
2018-11-21T00:13:05.446Z,24.30
2018-11-21T00:14:05.389Z,24.30
2018-11-21T00:15:05.368Z,25.30
2018-11-21T00:16:05.321Z,21.90
2018-11-21T00:17:05.299Z,22.00
2018-11-21T00:18:05.388Z,24.00
2018-11-21T00:19:05.234Z,22.70
2018-11-21T00:20:05.282Z,23.00
2018-11-21T00:21:05.205Z,23.70
2018-11-21T00:22:05.169Z,23.80
2018-11-21T00:23:05.129Z,23.30
2018-11-21T00:24:05.137Z,21.90
2018-11-21T00:25:05.070Z,23.50
2018-11-21T00:26:05.040Z,22.80
2018-11-21T00:27:05.038Z,23.60
2018-11-21T00:28:05.055Z,23.20
2018-11-21T00:29:05.086Z,23.20
2018-11-21T00:30:04.942Z,25.30
2018-11-21T00:31:04.909Z,23.30
2018-11-21T00:32:04.912Z,24.60
2018-11-21T00:33:04.887Z,23.10
2018-11-21T00:34:04.863Z,28.10
2018-11-21T00:35:04.838Z,24.70
2018-11-21T00:36:04.856Z,22.20
2018-11-21T00:37:04.769Z,25.10
2018-11-21T00:38:04.736Z,24.30
2018-11-21T00:39:04.695Z,24.90
2018-11-21T00:40:04.768Z,23.30
2018-11-21T00:41:04.787Z,22.80
2018-11-21T00:42:04.640Z,22.50
2018-11-21T00:43:04.595Z,24.90
2018-11-21T00:44:04.581Z,22.20
2018-11-21T00:45:04.637Z,22.70
2018-11-21T00:46:04.571Z,24.40
2018-11-21T00:47:04.692Z,23.50
2018-11-21T00:48:04.455Z,24.40
2018-11-21T00:49:04.477Z,25.00
2018-11-21T00:50:04.417Z,23.20
2018-11-21T00:51:04.392Z,23.90
2018-11-21T00:52:04.358Z,25.60
2018-11-21T00:53:04.321Z,24.30
2018-11-21T00:54:04.300Z,23.70
2018-11-21T00:55:04.300Z,22.90
2018-11-21T00:56:04.270Z,22.90
2018-11-21T00:57:04.211Z,25.50
2018-11-21T00:58:04.280Z,25.00
2018-11-21T00:59:04.159Z,23.70
2018-11-21T01:00:04.194Z,22.80
2018-11-21T01:01:04.106Z,23.90
2018-11-21T01:02:04.098Z,23.80
2018-11-21T01:03:04.074Z,25.10
2018-11-21T01:04:04.040Z,24.70
2018-11-21T01:05:04.010Z,23.50
2018-11-21T01:06:03.992Z,23.40
2018-11-21T01:07:04.018Z,23.30
2018-11-21T01:08:03.980Z,22.70
2018-11-21T01:09:03.927Z,25.50
2018-11-21T01:10:03.882Z,25.10
2018-11-21T01:11:03.859Z,23.20
2018-11-21T01:12:03.820Z,22.30
2018-11-21T01:13:03.786Z,23.50
2018-11-21T01:14:03.773Z,27.10
2018-11-21T01:15:03.754Z,23.70
2018-11-21T01:16:04.244Z,24.00
2018-11-21T01:17:03.762Z,25.00
2018-11-21T01:18:03.789Z,26.00
2018-11-21T01:19:03.621Z,23.10
2018-11-21T01:20:03.615Z,22.30
2018-11-21T01:21:03.588Z,25.60
2018-11-21T01:22:03.554Z,24.30
2018-11-21T01:23:03.641Z,23.50
2018-11-21T01:24:03.490Z,24.10
2018-11-21T01:25:03.483Z,24.90
2018-11-21T01:26:03.504Z,22.40
2018-11-21T01:27:03.433Z,22.80
2018-11-21T01:28:03.742Z,23.20
2018-11-21T01:29:04.012Z,26.00
2018-11-21T01:30:03.510Z,26.00
2018-11-21T01:31:03.297Z,23.90
2018-11-21T01:32:03.333Z,24.50
2018-11-21T01:33:09.400Z,24.00
2018-11-21T01:34:03.217Z,23.30
2018-11-21T01:35:03.207Z,26.80
2018-11-21T01:36:03.178Z,22.30
2018-11-21T01:37:03.153Z,23.30
2018-11-21T01:38:03.125Z,22.20
2018-11-21T01:39:03.079Z,22.20
2018-11-21T01:40:03.057Z,24.90
2018-11-21T01:41:03.151Z,22.60
2018-11-21T01:42:03.011Z,24.00
2018-11-21T01:43:02.999Z,26.20
2018-11-21T01:44:02.950Z,26.20
2018-11-21T01:45:02.948Z,24.80
2018-11-21T01:46:02.944Z,28.90
2018-11-21T01:47:02.898Z,25.00
2018-11-21T01:48:02.891Z,23.30
2018-11-21T01:49:02.827Z,26.70
2018-11-21T01:50:02.801Z,23.60
2018-11-21T01:51:02.778Z,24.50
2018-11-21T01:52:02.736Z,27.00
2018-11-21T01:53:02.708Z,24.30
2018-11-21T01:54:02.776Z,25.80
2018-11-21T01:55:02.654Z,25.20
2018-11-21T01:56:02.640Z,25.00
2018-11-21T01:57:02.619Z,24.40
2018-11-21T01:58:02.605Z,25.60
2018-11-21T01:59:02.543Z,23.50
2018-11-21T02:00:02.540Z,26.20
2018-11-21T02:01:02.521Z,25.20
2018-11-21T02:02:02.494Z,25.10
2018-11-21T02:03:02.506Z,26.50
2018-11-21T02:04:02.408Z,27.30
2018-11-21T02:05:02.387Z,29.50
2018-11-21T02:06:02.443Z,25.20
2018-11-21T02:07:02.359Z,23.00
2018-11-21T02:08:02.307Z,22.60
2018-11-21T02:09:02.289Z,25.90
2018-11-21T02:10:02.304Z,25.20
2018-11-21T02:11:02.227Z,24.60
2018-11-21T02:12:02.188Z,24.30
2018-11-21T02:13:02.269Z,23.90
2018-11-21T02:14:02.171Z,23.50
2018-11-21T02:15:02.120Z,24.30
2018-11-21T02:16:02.149Z,26.20
2018-11-21T02:17:02.082Z,24.00
2018-11-21T02:18:02.035Z,23.80
2018-11-21T02:19:02.016Z,22.40
2018-11-21T02:20:02.000Z,22.30
2018-11-21T02:21:01.945Z,23.30
2018-11-21T02:22:01.995Z,23.30
2018-11-21T02:23:01.928Z,23.90
2018-11-21T02:24:01.985Z,23.10
2018-11-21T02:25:01.865Z,25.00
2018-11-21T02:26:01.861Z,25.70
2018-11-21T02:27:01.789Z,24.30
2018-11-21T02:28:01.758Z,26.10
2018-11-21T02:29:01.818Z,24.70
2018-11-21T02:30:01.747Z,24.60
2018-11-21T02:31:01.677Z,26.30
2018-11-21T02:32:01.651Z,25.40
2018-11-21T02:33:01.630Z,25.90
2018-11-21T02:34:01.627Z,27.00
2018-11-21T02:35:01.587Z,26.60
2018-11-21T02:36:01.541Z,22.70
2018-11-21T02:37:01.565Z,25.20
2018-11-21T02:38:01.487Z,26.70
2018-11-21T02:39:01.635Z,24.90
2018-11-21T02:40:01.450Z,25.60
2018-11-21T02:41:01.471Z,26.80
2018-11-21T02:42:01.385Z,24.40
2018-11-21T02:43:02.149Z,24.60
2018-11-21T02:44:01.352Z,24.70
2018-11-21T02:45:01.405Z,25.70
2018-11-21T02:46:01.315Z,24.10
2018-11-21T02:47:01.242Z,23.70
2018-11-21T02:48:01.232Z,25.30
2018-11-21T02:49:01.320Z,24.90
2018-11-21T02:50:01.168Z,23.60
2018-11-21T02:51:01.162Z,24.90
2018-11-21T02:52:01.118Z,23.60
2018-11-21T02:53:01.090Z,24.80
2018-11-21T02:54:01.103Z,25.00
2018-11-21T02:55:01.105Z,26.00
2018-11-21T02:56:01.007Z,26.40
2018-11-21T02:57:01.040Z,21.60
2018-11-21T02:58:00.972Z,26.60
2018-11-21T02:59:00.905Z,24.20
2018-11-21T03:00:00.908Z,24.60
2018-11-21T03:01:01.055Z,24.30
2018-11-21T03:02:00.850Z,28.30
2018-11-21T03:03:00.800Z,27.10
2018-11-21T03:04:00.799Z,27.80
2018-11-21T03:05:00.744Z,26.20
2018-11-21T03:06:00.743Z,25.80
2018-11-21T03:07:00.696Z,23.70
2018-11-21T03:08:00.672Z,25.40
2018-11-21T03:09:00.646Z,26.50
2018-11-21T03:10:00.615Z,22.90
2018-11-21T03:11:00.728Z,23.20
2018-11-21T03:12:00.576Z,22.40
2018-11-21T03:13:00.536Z,25.70
2018-11-21T03:14:00.563Z,23.70
2018-11-21T03:15:00.494Z,24.00
2018-11-21T03:16:00.452Z,23.00
2018-11-21T03:17:00.562Z,23.90
2018-11-21T03:18:00.418Z,24.70
2018-11-21T03:19:00.384Z,25.20
2018-11-21T03:20:00.351Z,23.10
2018-11-21T03:21:00.307Z,27.30
2018-11-21T03:22:00.284Z,25.90
2018-11-21T03:23:00.350Z,26.10
2018-11-21T03:24:00.225Z,26.20
2018-11-21T03:25:00.310Z,25.40
2018-11-21T03:26:00.192Z,23.90
2018-11-21T03:27:00.228Z,23.20
2018-11-21T03:28:00.129Z,25.00
2018-11-21T03:29:00.267Z,24.50
2018-11-21T03:30:00.137Z,22.30
2018-11-21T03:31:00.032Z,26.40
2018-11-21T03:32:00.127Z,25.50
2018-11-21T03:32:59.984Z,23.90
2018-11-21T03:33:59.968Z,25.70
2018-11-21T03:34:59.926Z,24.60
2018-11-21T03:36:00.078Z,24.20
2018-11-21T03:36:59.869Z,25.80
2018-11-21T03:37:59.846Z,25.40
2018-11-21T03:38:59.913Z,23.80
2018-11-21T03:39:59.873Z,23.00
2018-11-21T03:40:59.820Z,23.10
2018-11-21T03:41:59.753Z,25.80
2018-11-21T03:42:59.764Z,24.10
2018-11-21T03:43:59.703Z,25.90
2018-11-21T03:44:59.684Z,22.50
2018-11-21T03:45:59.634Z,24.10
2018-11-21T03:46:59.608Z,22.90
2018-11-21T03:47:59.596Z,24.90
2018-11-21T03:48:59.576Z,26.10
2018-11-21T03:49:59.535Z,23.20
2018-11-21T03:50:59.585Z,23.40
2018-11-21T03:51:59.551Z,23.30
2018-11-21T03:52:59.460Z,24.10
2018-11-21T03:53:59.431Z,25.60
2018-11-21T03:54:59.407Z,24.80
2018-11-21T03:55:59.408Z,25.20
2018-11-21T03:56:59.360Z,23.00
2018-11-21T03:57:59.307Z,23.50
2018-11-21T03:58:59.277Z,25.60
2018-11-21T03:59:59.287Z,24.80
2018-11-21T04:00:59.241Z,24.40
2018-11-21T04:01:59.214Z,23.00
2018-11-21T04:02:59.180Z,25.90
2018-11-21T04:03:59.132Z,25.70
2018-11-21T04:04:59.111Z,23.20
2018-11-21T04:05:59.167Z,24.90
2018-11-21T04:06:59.061Z,24.00
2018-11-21T04:07:59.107Z,24.10
2018-11-21T04:08:58.993Z,22.90
2018-11-21T04:09:58.986Z,24.20
2018-11-21T04:10:58.978Z,24.50
2018-11-21T04:11:58.909Z,26.50
2018-11-21T04:12:58.971Z,22.30
2018-11-21T04:13:58.908Z,23.70
2018-11-21T04:14:58.830Z,23.30
2018-11-21T04:15:58.809Z,23.20
2018-11-21T04:16:58.801Z,23.10
2018-11-21T04:17:59.054Z,24.40
2018-11-21T04:18:58.769Z,22.60
2018-11-21T04:19:58.711Z,24.60
2018-11-21T04:20:58.675Z,22.90
2018-11-21T04:21:58.655Z,24.40
2018-11-21T04:22:58.634Z,25.60
2018-11-21T04:23:58.609Z,23.10
2018-11-21T04:24:58.686Z,21.40
2018-11-21T04:25:58.533Z,23.60
2018-11-21T04:26:58.692Z,25.30
2018-11-21T04:27:58.504Z,24.80
2018-11-21T04:28:58.502Z,22.90
2018-11-21T04:29:58.453Z,23.00
2018-11-21T04:30:58.423Z,25.10
2018-11-21T04:31:58.374Z,23.10
2018-11-21T04:32:58.339Z,22.80
2018-11-21T04:33:58.321Z,23.50
2018-11-21T04:34:58.395Z,23.80
2018-11-21T04:35:58.308Z,22.90
2018-11-21T04:36:58.232Z,26.30
2018-11-21T04:37:58.239Z,22.60
2018-11-21T04:38:58.259Z,25.60
2018-11-21T04:39:58.145Z,24.10
2018-11-21T04:40:58.168Z,24.90
2018-11-21T04:41:58.401Z,22.50
2018-11-21T04:42:58.309Z,24.90
2018-11-21T04:43:58.052Z,23.80
2018-11-21T04:44:58.125Z,23.20
2018-11-21T04:45:58.041Z,22.80
2018-11-21T04:46:57.954Z,23.10
2018-11-21T04:47:57.963Z,23.00
2018-11-21T04:48:57.896Z,22.60
2018-11-21T04:49:57.938Z,23.70
2018-11-21T04:50:57.851Z,23.00
2018-11-21T04:51:57.869Z,24.30
2018-11-21T04:52:57.891Z,22.30
2018-11-21T04:53:57.798Z,25.50
2018-11-21T04:54:57.769Z,24.80
2018-11-21T04:55:57.742Z,24.80
2018-11-21T04:56:57.728Z,23.70
2018-11-21T04:57:57.690Z,25.00
2018-11-21T04:58:57.724Z,25.50
2018-11-21T04:59:57.675Z,25.90
2018-11-21T05:00:57.566Z,26.00
2018-11-21T05:01:57.544Z,23.50
2018-11-21T05:02:57.525Z,24.40
2018-11-21T05:03:57.482Z,25.50
2018-11-21T05:04:57.479Z,26.50
2018-11-21T05:05:57.593Z,22.40
2018-11-21T05:06:57.402Z,25.70
2018-11-21T05:07:57.390Z,25.70
2018-11-21T05:08:57.417Z,23.00
2018-11-21T05:09:57.337Z,24.70
2018-11-21T05:10:57.428Z,27.40
2018-11-21T05:11:57.315Z,24.80
2018-11-21T05:12:57.260Z,25.30
2018-11-21T05:13:57.340Z,22.10
2018-11-21T05:14:57.192Z,22.20
2018-11-21T05:15:57.172Z,21.80
2018-11-21T05:16:58.070Z,23.20
2018-11-21T05:17:57.138Z,23.00
2018-11-21T05:18:57.099Z,21.90
2018-11-21T05:19:57.047Z,24.90
2018-11-21T05:20:57.048Z,24.70
2018-11-21T05:21:57.075Z,23.20
2018-11-21T05:22:56.958Z,22.80
2018-11-21T05:23:56.935Z,23.00
2018-11-21T05:24:56.940Z,23.50
2018-11-21T05:25:56.913Z,24.60
2018-11-21T05:26:56.934Z,23.90
2018-11-21T05:27:56.888Z,24.70
2018-11-21T05:28:56.814Z,22.00
2018-11-21T05:29:56.917Z,22.40
2018-11-21T05:30:56.784Z,22.60
2018-11-21T05:31:56.720Z,21.80
2018-11-21T05:32:56.697Z,21.00
2018-11-21T05:33:56.668Z,22.50
2018-11-21T05:34:56.724Z,22.30
2018-11-21T05:35:56.611Z,20.90
2018-11-21T05:36:56.588Z,22.60
2018-11-21T05:37:56.550Z,23.50
2018-11-21T05:38:56.621Z,21.80
2018-11-21T05:39:56.528Z,23.50
2018-11-21T05:40:56.541Z,23.00
2018-11-21T05:41:56.447Z,24.30
2018-11-21T05:42:56.429Z,23.50
2018-11-21T05:43:56.393Z,24.40
2018-11-21T05:44:56.483Z,23.00
2018-11-21T05:45:56.326Z,23.80
2018-11-21T05:46:56.329Z,22.60
2018-11-21T05:47:56.282Z,22.30
2018-11-21T05:48:56.350Z,21.80
2018-11-21T05:49:56.275Z,23.20
2018-11-21T05:50:56.195Z,23.70
2018-11-21T05:51:56.173Z,24.20
2018-11-21T05:52:56.207Z,23.90
2018-11-21T05:53:56.134Z,23.70
2018-11-21T05:54:56.100Z,19.50
2018-11-21T05:55:56.082Z,22.20
2018-11-21T05:56:56.033Z,25.50
2018-11-21T05:57:56.032Z,23.60
2018-11-21T05:58:56.000Z,25.30
2018-11-21T05:59:55.968Z,23.60
2018-11-21T06:00:56.000Z,23.50
2018-11-21T06:01:55.922Z,21.80
2018-11-21T06:02:55.898Z,22.00
2018-11-21T06:03:55.841Z,23.40
2018-11-21T06:04:55.800Z,23.00
2018-11-21T06:05:55.791Z,20.40
2018-11-21T06:06:55.844Z,22.20
2018-11-21T06:07:55.741Z,22.20
2018-11-21T06:08:55.720Z,22.20
2018-11-21T06:09:55.663Z,24.00
2018-11-21T06:10:55.653Z,25.60
2018-11-21T06:11:55.634Z,23.10
2018-11-21T06:12:55.611Z,24.30
2018-11-21T06:13:55.557Z,24.20
2018-11-21T06:14:55.550Z,22.60
2018-11-21T06:15:55.504Z,25.10
2018-11-21T06:16:55.550Z,26.00
2018-11-21T06:17:55.471Z,22.80
2018-11-21T06:18:55.424Z,23.20
2018-11-21T06:19:55.421Z,22.10
2018-11-21T06:20:55.421Z,23.10
2018-11-21T06:21:55.352Z,24.50
2018-11-21T06:22:55.312Z,24.60
2018-11-21T06:23:55.367Z,22.80
2018-11-21T06:24:55.278Z,24.10
2018-11-21T06:25:55.260Z,24.60
2018-11-21T06:26:55.220Z,22.60
2018-11-21T06:27:55.275Z,22.50
2018-11-21T06:28:55.171Z,23.10
2018-11-21T06:29:55.116Z,23.60
2018-11-21T06:30:55.112Z,22.00
2018-11-21T06:31:55.064Z,23.90
2018-11-21T06:32:55.097Z,26.10
2018-11-21T06:33:55.033Z,22.00
2018-11-21T06:34:54.976Z,22.00
2018-11-21T06:35:54.965Z,22.10
2018-11-21T06:36:54.931Z,21.60
2018-11-21T06:37:54.957Z,21.80
2018-11-21T06:38:54.930Z,23.00
2018-11-21T06:39:54.910Z,23.30
2018-11-21T06:40:54.892Z,21.70
2018-11-21T06:41:54.815Z,24.40
2018-11-21T06:42:54.825Z,20.40
2018-11-21T06:43:54.763Z,24.40
2018-11-21T06:44:54.716Z,23.90
2018-11-21T06:45:54.723Z,25.40
2018-11-21T06:46:54.663Z,22.00
2018-11-21T06:47:54.631Z,23.00
2018-11-21T06:48:54.602Z,23.60
2018-11-21T06:49:54.578Z,22.10
2018-11-21T06:50:54.566Z,23.70
2018-11-21T06:51:54.531Z,23.90
2018-11-21T06:52:54.489Z,23.30
2018-11-21T06:53:54.482Z,21.00
2018-11-21T06:54:54.432Z,24.00
2018-11-21T06:55:54.448Z,25.20
2018-11-21T06:56:54.395Z,24.90
2018-11-21T06:57:54.370Z,22.70
2018-11-21T06:58:55.275Z,23.70
2018-11-21T06:59:54.361Z,23.70
2018-11-21T07:00:54.297Z,25.70
2018-11-21T07:01:54.286Z,22.80
2018-11-21T07:02:54.280Z,23.20
2018-11-21T07:03:54.183Z,24.50
2018-11-21T07:04:54.240Z,22.50
2018-11-21T07:05:54.125Z,22.90
2018-11-21T07:06:54.127Z,21.30
2018-11-21T07:07:54.160Z,21.70
2018-11-21T07:08:54.042Z,22.60
2018-11-21T07:09:54.011Z,24.10
2018-11-21T07:10:53.997Z,23.40
2018-11-21T07:11:53.960Z,22.10
2018-11-21T07:12:53.949Z,26.20
2018-11-21T07:13:53.909Z,24.40
2018-11-21T07:14:53.911Z,24.80
2018-11-21T07:15:53.849Z,25.10
2018-11-21T07:16:53.824Z,25.40
2018-11-21T07:17:53.804Z,23.90
2018-11-21T07:18:53.766Z,25.70
2018-11-21T07:19:53.766Z,25.10
2018-11-21T07:20:53.699Z,25.20
2018-11-21T07:21:53.709Z,23.30
2018-11-21T07:22:53.721Z,23.20
2018-11-21T07:23:53.678Z,28.70
2018-11-21T07:24:53.658Z,24.70
2018-11-21T07:25:53.645Z,24.90
2018-11-21T07:26:53.614Z,26.60
2018-11-21T07:27:53.532Z,25.00
2018-11-21T07:28:53.557Z,24.80
2018-11-21T07:29:53.453Z,24.70
2018-11-21T07:30:53.447Z,25.50
2018-11-21T07:31:53.407Z,24.10
2018-11-21T07:32:53.376Z,28.20
2018-11-21T07:33:53.386Z,25.40
2018-11-21T07:34:53.352Z,25.60
2018-11-21T07:35:53.299Z,25.50
2018-11-21T07:36:53.316Z,26.20
2018-11-21T07:37:53.325Z,24.60
2018-11-21T07:38:53.214Z,26.20
2018-11-21T07:39:53.213Z,30.00
2018-11-21T07:40:53.165Z,26.50
2018-11-21T07:41:53.452Z,24.40
2018-11-21T07:42:53.158Z,27.40
2018-11-21T07:43:53.096Z,25.10
2018-11-21T07:44:53.061Z,26.70
2018-11-21T07:45:53.007Z,27.90
2018-11-21T07:46:53.181Z,29.10
2018-11-21T07:47:52.996Z,25.70
2018-11-21T07:48:52.997Z,25.30
2018-11-21T07:49:52.973Z,28.40
2018-11-21T07:50:52.883Z,26.70
2018-11-21T07:51:52.866Z,26.60
2018-11-21T07:52:52.847Z,27.70
2018-11-21T07:54:00.492Z,28.60
2018-11-21T07:55:47.233Z,27.50
2018-11-21T07:56:47.139Z,27.40
2018-11-21T07:57:47.125Z,27.60
2018-11-21T07:58:47.086Z,25.00
2018-11-21T07:59:47.111Z,26.50
2018-11-21T08:00:47.043Z,30.20
2018-11-21T08:01:47.025Z,26.80
2018-11-21T08:02:47.062Z,28.30
2018-11-21T08:03:46.952Z,29.00
2018-11-21T08:04:46.939Z,28.50
2018-11-21T08:05:46.944Z,30.30
2018-11-21T08:06:46.921Z,28.00
2018-11-21T08:07:46.945Z,28.70
2018-11-21T08:08:46.888Z,25.30
2018-11-21T08:09:47.089Z,24.30
2018-11-21T08:10:46.774Z,29.60
2018-11-21T08:11:46.754Z,27.00
2018-11-21T08:12:46.728Z,29.90
2018-11-21T08:13:46.687Z,28.20
2018-11-21T08:14:46.674Z,29.30
2018-11-21T08:15:46.776Z,29.40
2018-11-21T08:16:46.872Z,26.60
2018-11-21T08:17:46.656Z,28.50
2018-11-21T08:18:46.586Z,26.90
2018-11-21T08:19:46.511Z,27.30
2018-11-21T08:20:46.609Z,28.50
2018-11-21T08:21:46.803Z,25.80
2018-11-21T08:22:46.452Z,30.00
2018-11-21T08:23:46.437Z,29.00
2018-11-21T08:24:46.482Z,26.10
2018-11-21T08:25:46.413Z,26.80
2018-11-21T08:26:46.697Z,26.50
2018-11-21T08:27:46.293Z,28.90
2018-11-21T08:28:46.913Z,29.70
2018-11-21T08:29:46.347Z,30.80
2018-11-21T08:30:46.212Z,29.70
2018-11-21T08:31:46.180Z,30.20
2018-11-21T08:32:46.237Z,28.50
2018-11-21T08:33:46.171Z,26.80
2018-11-21T08:34:46.123Z,26.70
2018-11-21T08:35:46.154Z,26.30
2018-11-21T08:36:46.124Z,22.70
2018-11-21T08:37:46.016Z,28.80
2018-11-21T08:38:46.004Z,31.50
2018-11-21T08:39:45.977Z,29.50
2018-11-21T08:40:45.994Z,25.90
2018-11-21T08:41:45.908Z,24.30
2018-11-21T08:42:45.879Z,29.90
2018-11-21T08:43:45.864Z,26.90
2018-11-21T08:44:45.850Z,26.90
2018-11-21T08:45:45.795Z,26.80
2018-11-21T08:46:45.783Z,26.10
2018-11-21T08:47:45.746Z,27.70
2018-11-21T08:48:45.719Z,26.40
2018-11-21T08:49:45.703Z,26.20
2018-11-21T08:50:45.662Z,25.40
2018-11-21T08:51:45.642Z,28.10
2018-11-21T08:52:45.638Z,28.70
2018-11-21T08:53:45.601Z,27.60
2018-11-21T08:54:45.725Z,28.60
2018-11-21T08:55:45.950Z,29.30
2018-11-21T08:56:45.557Z,25.60
2018-11-21T08:57:45.489Z,27.80
2018-11-21T08:58:45.508Z,29.60
2018-11-21T08:59:45.429Z,26.70
2018-11-21T09:00:45.417Z,27.70
2018-11-21T09:01:45.397Z,28.80
2018-11-21T09:02:45.371Z,25.30
2018-11-21T09:03:45.377Z,25.90
2018-11-21T09:04:45.301Z,25.90
2018-11-21T09:05:45.322Z,27.20
2018-11-21T09:06:45.249Z,25.90
2018-11-21T09:07:45.204Z,26.90
2018-11-21T09:08:45.176Z,26.60
2018-11-21T09:09:45.171Z,29.20
2018-11-21T09:10:45.154Z,30.10
2018-11-21T09:11:45.144Z,28.50
2018-11-21T09:12:45.096Z,28.40
2018-11-21T09:13:45.086Z,27.90
2018-11-21T09:14:45.035Z,29.40
2018-11-21T09:15:45.031Z,26.90
2018-11-21T09:16:44.990Z,30.50
2018-11-21T09:17:44.945Z,28.50
2018-11-21T09:18:44.911Z,25.90
2018-11-21T09:19:44.889Z,25.30
2018-11-21T09:20:44.877Z,27.30
2018-11-21T09:21:44.871Z,26.90
2018-11-21T09:22:44.814Z,29.50
2018-11-21T09:23:44.837Z,27.70
2018-11-21T09:24:44.754Z,28.10
2018-11-21T09:25:44.722Z,26.50
2018-11-21T09:26:44.701Z,25.90
2018-11-21T09:27:44.752Z,25.10
2018-11-21T09:28:44.696Z,25.80
2018-11-21T09:29:44.654Z,23.90
2018-11-21T09:30:45.044Z,25.50
2018-11-21T09:31:44.577Z,25.90
2018-11-21T09:32:44.577Z,24.40
2018-11-21T09:33:44.533Z,27.10
2018-11-21T09:34:44.494Z,26.80
2018-11-21T09:35:44.509Z,25.70
2018-11-21T09:36:44.439Z,27.10
2018-11-21T09:37:44.405Z,25.70
2018-11-21T09:38:44.424Z,27.20
2018-11-21T09:39:44.364Z,24.00
2018-11-21T09:40:44.352Z,27.40
2018-11-21T09:41:44.337Z,25.50
2018-11-21T09:42:44.283Z,25.50
2018-11-21T09:43:44.268Z,24.90
2018-11-21T09:44:44.223Z,28.90
2018-11-21T09:45:44.197Z,26.20
2018-11-21T09:46:44.218Z,26.70
2018-11-21T09:47:44.165Z,25.90
2018-11-21T09:48:44.154Z,25.70
2018-11-21T09:49:44.184Z,28.20
2018-11-21T09:50:44.086Z,26.80
2018-11-21T09:51:44.055Z,26.50
2018-11-21T09:52:44.058Z,24.80
2018-11-21T09:53:44.025Z,26.80
2018-11-21T09:54:43.976Z,25.80
2018-11-21T09:55:44.016Z,27.00
2018-11-21T09:56:43.926Z,28.20
2018-11-21T09:57:43.906Z,27.50
2018-11-21T09:58:43.916Z,25.60
2018-11-21T09:59:43.885Z,26.60
2018-11-21T10:00:43.818Z,23.30
2018-11-21T10:01:43.771Z,27.10
2018-11-21T10:02:43.756Z,25.60
2018-11-21T10:03:43.754Z,25.60
2018-11-21T10:08:22.555Z,26.30
2018-11-21T10:09:22.516Z,25.20
2018-11-21T10:11:15.899Z,25.40
2018-11-21T10:12:15.856Z,26.50
2018-11-21T10:13:15.868Z,22.40
2018-11-21T10:14:15.799Z,28.30
2018-11-21T10:15:15.792Z,24.10
2018-11-21T10:16:15.747Z,23.30
2018-11-21T10:17:15.726Z,25.20
2018-11-21T10:18:15.691Z,23.60
2018-11-21T10:19:15.669Z,23.60
2018-11-21T10:20:15.635Z,24.70
2018-11-21T10:21:15.633Z,23.40
2018-11-21T10:22:15.600Z,23.40
2018-11-21T10:23:15.565Z,27.00
2018-11-21T10:24:15.540Z,25.00
2018-11-21T10:25:15.508Z,26.10
2018-11-21T10:26:15.490Z,24.20
2018-11-21T10:27:15.460Z,26.30
2018-11-21T10:28:15.437Z,25.40
2018-11-21T10:29:15.424Z,26.20
2018-11-21T10:30:15.410Z,24.10
2018-11-21T10:31:15.360Z,24.10
2018-11-21T10:32:15.335Z,26.30
2018-11-21T10:33:15.322Z,25.40
2018-11-21T10:34:15.301Z,22.70
2018-11-21T10:35:15.265Z,25.30
2018-11-21T10:36:15.232Z,24.70
2018-11-21T10:37:15.213Z,25.40
2018-11-21T10:38:15.236Z,25.70
2018-11-21T10:39:15.147Z,23.10
2018-11-21T10:40:15.124Z,26.60
2018-11-21T10:41:15.186Z,24.80
2018-11-21T10:42:15.074Z,23.20
2018-11-21T10:43:15.050Z,23.50
2018-11-21T10:44:15.021Z,24.50
2018-11-21T10:45:15.036Z,23.80
2018-11-21T10:46:14.980Z,22.40
2018-11-21T10:47:14.942Z,22.40
2018-11-21T10:48:14.970Z,24.50
2018-11-21T10:49:14.924Z,23.20
2018-11-21T10:50:14.877Z,21.50
2018-11-21T10:51:15.141Z,23.60
2018-11-21T10:52:14.840Z,24.40
2018-11-21T10:53:14.916Z,24.30
2018-11-21T10:54:14.774Z,25.20
2018-11-21T10:55:14.773Z,22.10
2018-11-21T10:56:14.728Z,22.80
2018-11-21T10:57:14.706Z,23.80
2018-11-21T10:58:14.800Z,24.30
2018-11-21T10:59:14.677Z,23.50
2018-11-21T11:00:14.636Z,24.50
2018-11-21T11:01:14.607Z,21.80
2018-11-21T11:02:14.600Z,23.10
2018-11-21T11:03:14.565Z,24.40
2018-11-21T11:04:14.546Z,22.50
2018-11-21T11:05:14.494Z,23.80
2018-11-21T11:06:14.541Z,21.40
2018-11-21T11:07:14.529Z,23.20
2018-11-21T11:08:14.438Z,23.30
2018-11-21T11:09:14.425Z,23.00
2018-11-21T11:10:14.386Z,23.80
2018-11-21T11:11:14.362Z,26.00
2018-11-21T11:12:14.325Z,24.00
2018-11-21T11:13:14.385Z,24.80
2018-11-21T11:14:14.291Z,22.40
2018-11-21T11:15:14.339Z,24.00
2018-11-21T11:16:14.234Z,22.20
2018-11-21T11:17:14.195Z,25.10
2018-11-21T11:18:14.185Z,22.50
2018-11-21T11:19:14.158Z,23.70
2018-11-21T11:20:14.156Z,24.10
2018-11-21T11:21:14.122Z,22.60
2018-11-21T11:22:14.127Z,23.40
2018-11-21T11:23:14.064Z,24.20
2018-11-21T11:24:14.040Z,24.30
2018-11-21T11:25:13.987Z,23.50
2018-11-21T11:26:13.982Z,23.90
2018-11-21T11:27:13.943Z,23.20
2018-11-21T11:28:14.742Z,24.40
2018-11-21T11:29:13.909Z,25.80
2018-11-21T11:30:13.893Z,25.90
2018-11-21T11:31:13.844Z,24.30
2018-11-21T11:32:13.834Z,23.50
2018-11-21T11:33:13.805Z,23.70
2018-11-21T11:34:13.828Z,24.00
2018-11-21T11:35:13.782Z,22.30
2018-11-21T11:36:13.743Z,21.90
2018-11-21T11:37:13.749Z,23.70
2018-11-21T11:38:13.780Z,22.70
2018-11-21T11:39:13.681Z,21.00
2018-11-21T11:40:13.647Z,24.50
2018-11-21T11:41:13.609Z,21.90
2018-11-21T11:42:13.714Z,20.60
2018-11-21T11:43:13.588Z,22.20
2018-11-21T11:44:13.535Z,23.10
2018-11-21T11:45:14.479Z,23.50
2018-11-21T11:46:13.509Z,21.40
2018-11-21T11:47:13.483Z,21.50
2018-11-21T11:48:13.439Z,24.50
2018-11-21T11:49:13.419Z,23.60
2018-11-21T11:50:13.412Z,24.60
2018-11-21T11:51:13.376Z,22.80
2018-11-21T11:52:13.353Z,23.40
2018-11-21T11:53:13.351Z,22.50
2018-11-21T11:54:13.315Z,21.20
2018-11-21T11:55:13.289Z,23.20
2018-11-21T11:56:13.269Z,24.60
2018-11-21T11:57:13.297Z,22.10
2018-11-21T11:58:13.217Z,21.60
2018-11-21T11:59:13.206Z,23.20
2018-11-21T12:00:13.157Z,22.50
2018-11-21T12:01:13.164Z,21.60
2018-11-21T12:02:13.405Z,21.40
2018-11-21T12:03:13.139Z,19.70
2018-11-21T12:04:13.100Z,21.70
2018-11-21T12:05:13.041Z,20.10
2018-11-21T12:06:13.037Z,20.50
2018-11-21T12:07:13.005Z,21.50
2018-11-21T12:08:12.981Z,21.20
2018-11-21T12:09:12.961Z,22.00
2018-11-21T12:10:12.993Z,19.40
2018-11-21T12:11:12.988Z,21.60
2018-11-21T12:12:12.903Z,19.90
2018-11-21T12:13:12.886Z,20.10
2018-11-21T12:14:12.845Z,20.30
2018-11-21T12:15:12.819Z,19.30
2018-11-21T12:16:12.776Z,20.30
2018-11-21T12:17:12.768Z,21.80
2018-11-21T12:18:12.740Z,21.10
2018-11-21T12:19:12.717Z,19.10
2018-11-21T12:20:12.692Z,19.60
2018-11-21T12:21:12.682Z,20.50
2018-11-21T12:22:12.647Z,19.00
2018-11-21T12:23:12.622Z,20.10
2018-11-21T12:24:12.615Z,18.90
2018-11-21T12:25:12.571Z,19.60
2018-11-21T12:26:12.580Z,24.10
2018-11-21T12:27:12.532Z,18.10
2018-11-21T12:28:12.511Z,18.70
2018-11-21T12:29:12.506Z,19.90
2018-11-21T12:30:12.461Z,19.30
2018-11-21T12:31:12.448Z,20.90
2018-11-21T12:32:12.405Z,20.10
2018-11-21T12:33:12.410Z,18.90
2018-11-21T12:34:12.357Z,17.80
2018-11-21T12:35:12.365Z,18.80
2018-11-21T12:36:12.339Z,19.90
2018-11-21T12:37:12.311Z,17.80
2018-11-21T12:38:12.285Z,20.50
2018-11-21T12:39:12.246Z,20.10
2018-11-21T12:40:12.225Z,19.00
2018-11-21T12:41:12.202Z,19.70
2018-11-21T12:42:12.186Z,19.60
2018-11-21T12:43:13.496Z,18.20
2018-11-21T12:44:12.145Z,19.90
2018-11-21T12:45:12.101Z,19.80
2018-11-21T12:46:12.080Z,17.60
2018-11-21T12:47:12.090Z,18.20
2018-11-21T12:48:12.076Z,21.40
2018-11-21T12:49:12.085Z,18.70
2018-11-21T12:50:12.003Z,20.40
2018-11-21T12:51:11.969Z,18.10
2018-11-21T12:52:11.958Z,17.10
2018-11-21T12:53:11.943Z,17.10
2018-11-21T12:54:11.889Z,19.40
2018-11-21T12:55:11.864Z,20.20
2018-11-21T12:56:11.846Z,17.50
2018-11-21T12:57:11.825Z,19.60